createdAt,value
2022-12-12T00:00:29.252Z,0.70
2022-12-12T00:02:57.074Z,0.70
2022-12-12T00:05:24.470Z,0.70
2022-12-12T00:07:51.354Z,0.60
2022-12-12T00:10:18.236Z,0.60
2022-12-12T00:12:45.110Z,0.60
2022-12-12T00:15:12.378Z,0.60
2022-12-12T00:17:39.497Z,0.60
2022-12-12T00:20:06.838Z,0.50
2022-12-12T00:22:33.700Z,0.50
2022-12-12T00:25:00.702Z,0.50
2022-12-12T00:27:27.508Z,0.50
2022-12-12T00:29:54.837Z,0.50
2022-12-12T00:32:21.701Z,0.40
2022-12-12T00:34:48.610Z,0.40
2022-12-12T00:37:15.763Z,0.40
2022-12-12T00:39:42.714Z,0.40
2022-12-12T00:42:09.648Z,0.30
2022-12-12T00:44:36.518Z,0.30
2022-12-12T00:47:03.446Z,0.30
2022-12-12T00:49:30.409Z,0.30
2022-12-12T00:51:57.250Z,0.20
2022-12-12T00:54:24.486Z,0.20
2022-12-12T00:56:52.201Z,0.20
2022-12-12T00:59:19.942Z,0.20
2022-12-12T01:01:47.368Z,0.10
2022-12-12T01:04:14.701Z,0.00
2022-12-12T01:06:41.601Z,0.00
2022-12-12T01:09:08.492Z,0.00
2022-12-12T01:11:35.514Z,0.00
2022-12-12T01:14:02.785Z,0.00
2022-12-12T01:16:30.129Z,-0.10
2022-12-12T01:18:57.114Z,-0.10
2022-12-12T01:21:24.497Z,-0.10
2022-12-12T01:23:51.384Z,-0.10
2022-12-12T01:26:19.817Z,-0.20
2022-12-12T01:28:46.986Z,-0.20
2022-12-12T01:31:14.270Z,-0.20
2022-12-12T01:33:46.171Z,-0.20
2022-12-12T01:36:17.192Z,-0.20
2022-12-12T01:38:44.851Z,-0.30
2022-12-12T01:41:12.306Z,-0.30
2022-12-12T01:43:39.559Z,-0.30
2022-12-12T01:46:08.824Z,-0.30
2022-12-12T01:48:39.293Z,-0.30
2022-12-12T01:51:08.379Z,-0.30
2022-12-12T01:53:35.423Z,-0.30
2022-12-12T01:56:05.854Z,-0.30
2022-12-12T01:58:33.078Z,-0.40
2022-12-12T02:01:00.131Z,-0.40
2022-12-12T02:03:27.618Z,-0.40
2022-12-12T02:05:59.699Z,-0.40
2022-12-12T02:08:27.272Z,-0.40
2022-12-12T02:10:54.162Z,-0.50
2022-12-12T02:13:23.242Z,-0.50
2022-12-12T02:16:02.278Z,-0.40
2022-12-12T02:18:37.588Z,-0.50
2022-12-12T02:21:23.118Z,-0.50
2022-12-12T02:24:08.469Z,-0.50
2022-12-12T02:26:53.963Z,-0.60
2022-12-12T02:29:25.944Z,-0.50
2022-12-12T02:32:00.376Z,-0.60
2022-12-12T02:34:42.250Z,-0.60
2022-12-12T02:37:27.549Z,-0.60
2022-12-12T02:40:11.782Z,-0.60
2022-12-12T02:42:46.977Z,-0.60
2022-12-12T02:45:38.606Z,-0.60
2022-12-12T02:48:12.532Z,-0.60
2022-12-12T02:50:40.191Z,-0.60
2022-12-12T02:53:07.118Z,-0.60
2022-12-12T02:55:36.596Z,-0.60
2022-12-12T02:58:04.737Z,-0.60
2022-12-12T03:00:34.875Z,-0.70
2022-12-12T03:03:23.307Z,-0.70
2022-12-12T03:06:47.256Z,-0.70
2022-12-12T03:09:32.903Z,-0.70
2022-12-12T03:12:14.735Z,-0.70
2022-12-12T03:14:47.431Z,-0.80
2022-12-12T03:17:18.349Z,-0.80
2022-12-12T03:19:52.037Z,-0.80
2022-12-12T03:22:18.898Z,-0.80
2022-12-12T03:25:12.023Z,-0.80
2022-12-12T03:27:47.702Z,-0.90
2022-12-12T03:30:16.326Z,-0.90
2022-12-12T03:32:49.643Z,-0.90
2022-12-12T03:35:19.639Z,-0.90
2022-12-12T03:37:48.483Z,-0.90
2022-12-12T03:40:19.658Z,-0.90
2022-12-12T03:42:52.802Z,-0.90
2022-12-12T03:45:34.494Z,-1.00
2022-12-12T03:48:08.520Z,-0.90
2022-12-12T03:50:42.622Z,-1.00
2022-12-12T03:53:17.971Z,-1.00
2022-12-12T03:56:11.220Z,-1.00
2022-12-12T03:58:45.845Z,-1.00
2022-12-12T04:01:13.252Z,-1.00
2022-12-12T04:03:43.215Z,-1.00
2022-12-12T04:06:28.613Z,-1.00
2022-12-12T04:09:18.380Z,-1.00
2022-12-12T04:12:11.627Z,-1.00
2022-12-12T04:14:57.007Z,-1.00
2022-12-12T04:17:29.766Z,-1.00
2022-12-12T04:20:17.780Z,-1.10
2022-12-12T04:23:11.293Z,-1.10
2022-12-12T04:26:04.573Z,-1.20
2022-12-12T04:28:32.581Z,-1.20
2022-12-12T04:31:03.153Z,-1.30
2022-12-12T04:33:33.221Z,-1.30
2022-12-12T04:36:00.731Z,-1.40
2022-12-12T04:38:27.762Z,-1.40
2022-12-12T04:40:55.915Z,-1.40
2022-12-12T04:43:25.786Z,-1.40
2022-12-12T04:45:57.998Z,-1.50
2022-12-12T04:48:28.237Z,-1.50
2022-12-12T04:50:56.011Z,-1.50
2022-12-12T04:53:26.780Z,-1.50
2022-12-12T04:55:56.427Z,-1.60
2022-12-12T04:58:23.905Z,-1.60
2022-12-12T05:00:57.549Z,-1.60
2022-12-12T05:03:30.240Z,-1.60
2022-12-12T05:05:59.750Z,-1.60
2022-12-12T05:08:34.025Z,-1.60
2022-12-12T05:11:01.620Z,-1.60
2022-12-12T05:13:29.866Z,-1.70
2022-12-12T05:15:58.280Z,-1.70
2022-12-12T05:18:25.092Z,-1.80
2022-12-12T05:20:52.378Z,-1.70
2022-12-12T05:23:19.283Z,-1.80
2022-12-12T05:25:46.232Z,-1.80
2022-12-12T05:28:13.177Z,-1.80
2022-12-12T05:30:40.225Z,-1.80
2022-12-12T05:33:07.135Z,-1.90
2022-12-12T05:35:34.258Z,-1.90
2022-12-12T05:38:01.849Z,-1.90
2022-12-12T05:40:28.789Z,-1.90
2022-12-12T05:42:55.636Z,-1.90
2022-12-12T05:45:22.611Z,-1.90
2022-12-12T05:47:49.516Z,-1.90
2022-12-12T05:50:16.466Z,-1.90
2022-12-12T05:52:43.407Z,-1.80
2022-12-12T05:55:10.555Z,-1.80
2022-12-12T05:57:37.604Z,-1.80
2022-12-12T06:00:05.183Z,-1.70
2022-12-12T06:02:32.064Z,-1.70
2022-12-12T06:04:58.941Z,-1.70
2022-12-12T06:07:25.791Z,-1.60
2022-12-12T06:09:52.807Z,-1.70
2022-12-12T06:12:19.682Z,-1.70
2022-12-12T06:14:46.514Z,-1.80
2022-12-12T06:17:13.385Z,-1.80
2022-12-12T06:19:40.308Z,-1.90
2022-12-12T06:22:07.155Z,-1.90
2022-12-12T06:24:33.984Z,-1.90
2022-12-12T06:27:01.204Z,-1.90
2022-12-12T06:29:28.073Z,-1.90
2022-12-12T06:31:55.022Z,-1.90
2022-12-12T06:34:21.862Z,-1.90
2022-12-12T06:36:48.746Z,-2.00
2022-12-12T06:39:15.576Z,-2.00
2022-12-12T06:41:42.633Z,-2.00
2022-12-12T06:44:09.536Z,-2.00
2022-12-12T06:46:36.508Z,-2.00
2022-12-12T06:49:09.739Z,-1.90
2022-12-12T06:51:44.629Z,-1.90
2022-12-12T06:54:15.959Z,-1.90
2022-12-12T06:56:47.942Z,-1.80
2022-12-12T06:59:15.809Z,-1.90
2022-12-12T07:01:43.104Z,-1.80
2022-12-12T07:04:11.004Z,-1.80
2022-12-12T07:06:37.989Z,-1.80
2022-12-12T07:09:04.979Z,-1.80
2022-12-12T07:11:32.338Z,-1.80
2022-12-12T07:14:00.156Z,-1.80
2022-12-12T07:16:27.474Z,-1.80
2022-12-12T07:18:54.327Z,-1.80
2022-12-12T07:21:21.311Z,-1.80
2022-12-12T07:23:48.261Z,-1.80
2022-12-12T07:26:17.598Z,-1.80
2022-12-12T07:28:44.640Z,-1.90
2022-12-12T07:31:12.866Z,-1.90
2022-12-12T07:33:44.181Z,-1.90
2022-12-12T07:36:15.597Z,-1.90
2022-12-12T07:38:43.183Z,-2.00
2022-12-12T07:41:11.536Z,-2.10
2022-12-12T07:43:44.065Z,-2.00
2022-12-12T07:46:13.663Z,-2.00
2022-12-12T07:48:40.498Z,-2.00
2022-12-12T07:51:07.364Z,-2.00
2022-12-12T07:53:34.287Z,-2.00
2022-12-12T07:56:04.199Z,-2.00
2022-12-12T07:58:31.052Z,-1.90
2022-12-12T08:00:57.884Z,-1.90
2022-12-12T08:03:24.762Z,-1.90
2022-12-12T08:05:51.668Z,-2.00
2022-12-12T08:08:18.903Z,-2.00
2022-12-12T08:10:45.956Z,-2.00
2022-12-12T08:13:12.903Z,-1.90
2022-12-12T08:15:39.827Z,-2.00
2022-12-12T08:18:06.776Z,-1.90
2022-12-12T08:20:33.622Z,-1.90
2022-12-12T08:23:00.638Z,-1.90
2022-12-12T08:25:27.521Z,-1.80
2022-12-12T08:27:54.385Z,-1.80
2022-12-12T08:30:22.113Z,-1.80
2022-12-12T08:32:49.034Z,-1.80
2022-12-12T08:35:16.149Z,-1.70
2022-12-12T08:37:43.183Z,-1.60
2022-12-12T08:40:10.542Z,-1.60
2022-12-12T08:42:37.405Z,-1.50
2022-12-12T08:45:04.498Z,-1.40
2022-12-12T08:47:31.309Z,-1.30
2022-12-12T08:49:58.159Z,-1.30
2022-12-12T08:52:24.963Z,-1.30
2022-12-12T08:54:51.883Z,-1.20
2022-12-12T08:57:24.285Z,-1.10
2022-12-12T08:59:52.777Z,-1.10
2022-12-12T09:02:19.739Z,-1.10
2022-12-12T09:04:46.675Z,-1.10
2022-12-12T09:07:13.520Z,-1.00
2022-12-12T09:09:40.333Z,-0.90
2022-12-12T09:12:07.362Z,-0.80
2022-12-12T09:14:34.176Z,-0.80
2022-12-12T09:17:01.129Z,-0.80
2022-12-12T09:19:27.958Z,-0.70
2022-12-12T09:21:54.805Z,-0.60
2022-12-12T09:24:21.716Z,-0.50
2022-12-12T09:26:48.537Z,-0.40
2022-12-12T09:29:15.410Z,-0.40
2022-12-12T09:31:42.392Z,-0.30
2022-12-12T09:34:09.271Z,-0.20
2022-12-12T09:36:36.253Z,-0.10
2022-12-12T09:39:03.860Z,-0.10
2022-12-12T09:41:31.892Z,0.00
2022-12-12T09:44:18.800Z,0.00
2022-12-12T09:46:54.028Z,0.10
2022-12-12T09:49:20.840Z,0.10
2022-12-12T09:51:49.518Z,0.10
2022-12-12T09:54:17.507Z,0.10
2022-12-12T09:56:55.753Z,0.20
2022-12-12T09:59:27.982Z,0.30
2022-12-12T10:02:17.800Z,0.40
2022-12-12T10:04:59.946Z,0.50
2022-12-12T10:07:29.938Z,0.60
2022-12-12T10:10:20.019Z,0.70
2022-12-12T10:12:47.505Z,0.70
2022-12-12T10:15:32.593Z,0.80
2022-12-12T10:18:00.663Z,0.80
2022-12-12T10:20:28.788Z,0.90
2022-12-12T10:23:14.051Z,1.00
2022-12-12T10:25:52.229Z,1.00
2022-12-12T10:28:20.186Z,1.10
2022-12-12T10:31:16.485Z,1.20
2022-12-12T10:33:52.396Z,1.30
2022-12-12T10:36:28.270Z,1.40
2022-12-12T10:39:14.263Z,1.40
2022-12-12T10:41:47.549Z,1.40
2022-12-12T10:44:24.133Z,1.40
2022-12-12T10:47:01.178Z,1.50
2022-12-12T10:49:28.103Z,1.60
2022-12-12T10:51:56.419Z,1.60
2022-12-12T10:54:25.954Z,1.60
2022-12-12T10:57:19.841Z,1.70
2022-12-12T10:59:49.004Z,1.80
2022-12-12T11:02:22.552Z,1.90
2022-12-12T11:04:49.403Z,2.00
2022-12-12T11:07:20.375Z,2.10
2022-12-12T11:09:47.283Z,2.10
2022-12-12T11:12:15.476Z,2.20
2022-12-12T11:14:50.336Z,2.30
2022-12-12T11:17:22.138Z,2.40
2022-12-12T11:19:49.053Z,2.50
2022-12-12T11:22:16.113Z,2.60
2022-12-12T11:24:45.397Z,2.70
2022-12-12T11:27:29.048Z,2.70
2022-12-12T11:29:58.059Z,2.80
2022-12-12T11:32:32.881Z,2.90
2022-12-12T11:35:02.080Z,3.00
2022-12-12T11:37:36.165Z,3.00
2022-12-12T11:40:03.705Z,3.10
2022-12-12T11:42:31.569Z,3.20
2022-12-12T11:45:03.757Z,3.30
2022-12-12T11:47:38.648Z,3.30
2022-12-12T11:50:17.827Z,3.40
2022-12-12T11:52:44.995Z,3.40
2022-12-12T11:55:19.722Z,3.50
2022-12-12T11:58:07.216Z,3.60
2022-12-12T12:00:55.694Z,3.80
2022-12-12T12:03:52.010Z,3.90
2022-12-12T12:06:25.226Z,4.00
2022-12-12T12:08:52.057Z,4.10
2022-12-12T12:11:24.953Z,4.20
2022-12-12T12:14:16.703Z,4.30
2022-12-12T12:16:55.610Z,4.40
2022-12-12T12:19:30.130Z,4.50
2022-12-12T12:22:22.864Z,4.60
2022-12-12T12:25:04.041Z,4.70
2022-12-12T12:27:33.958Z,4.80
2022-12-12T12:30:11.736Z,4.80
2022-12-12T12:32:46.682Z,4.90
2022-12-12T12:35:22.359Z,4.80
2022-12-12T12:37:58.028Z,4.90
2022-12-12T12:40:42.920Z,5.00
2022-12-12T12:43:33.314Z,5.10
2022-12-12T12:46:23.844Z,5.20
2022-12-12T12:48:53.697Z,5.30
2022-12-12T12:51:28.140Z,5.40
2022-12-12T12:53:57.951Z,5.40
2022-12-12T12:56:32.748Z,5.50
2022-12-12T12:59:01.917Z,5.60
2022-12-12T13:01:55.841Z,5.60
2022-12-12T13:04:27.328Z,5.50
2022-12-12T13:06:57.560Z,5.50
2022-12-12T13:09:28.872Z,5.50
2022-12-12T13:12:04.657Z,5.60
2022-12-12T13:14:50.444Z,5.60
2022-12-12T13:17:19.419Z,5.70
2022-12-12T13:19:48.395Z,5.70
2022-12-12T13:22:18.293Z,5.70
2022-12-12T13:25:06.176Z,5.90
2022-12-12T13:27:36.663Z,6.00
2022-12-12T13:30:06.099Z,6.20
2022-12-12T13:32:53.193Z,6.30
2022-12-12T13:35:30.197Z,6.40
2022-12-12T13:37:57.546Z,6.40
2022-12-12T13:40:29.611Z,6.40
2022-12-12T13:42:56.552Z,6.40
2022-12-12T13:45:34.775Z,6.50
2022-12-12T13:48:02.619Z,6.50
2022-12-12T13:50:30.184Z,6.50
2022-12-12T13:53:06.036Z,6.40
2022-12-12T13:55:33.375Z,6.30
2022-12-12T13:58:02.843Z,6.20
2022-12-12T14:00:33.972Z,6.20
2022-12-12T14:03:02.808Z,6.30
2022-12-12T14:05:40.007Z,6.20
2022-12-12T14:08:13.804Z,6.10
2022-12-12T14:10:49.645Z,6.00
2022-12-12T14:13:18.035Z,5.90
2022-12-12T14:15:45.204Z,6.00
2022-12-12T14:18:20.036Z,6.00
2022-12-12T14:20:54.978Z,6.00
2022-12-12T14:23:24.564Z,6.10
2022-12-12T14:25:51.468Z,6.00
2022-12-12T14:28:19.764Z,6.00
2022-12-12T14:30:48.596Z,5.90
2022-12-12T14:33:18.518Z,5.90
2022-12-12T14:35:57.301Z,5.70
2022-12-12T14:38:30.382Z,5.70
2022-12-12T14:41:00.334Z,5.60
2022-12-12T14:43:28.574Z,5.50
2022-12-12T14:45:55.454Z,5.40
2022-12-12T14:48:25.073Z,5.30
2022-12-12T14:51:01.555Z,5.20
2022-12-12T14:53:34.475Z,5.10
2022-12-12T14:56:03.350Z,4.90
2022-12-12T14:58:31.403Z,4.80
2022-12-12T15:00:59.708Z,4.70
2022-12-12T15:03:32.033Z,4.50
2022-12-12T15:06:17.869Z,4.40
2022-12-12T15:08:44.782Z,4.30
2022-12-12T15:11:15.241Z,4.20
2022-12-12T15:13:52.376Z,4.10
2022-12-12T15:16:20.650Z,4.00
2022-12-12T15:18:48.253Z,3.90
2022-12-12T15:21:15.769Z,3.80
2022-12-12T15:23:43.069Z,3.60
2022-12-12T15:26:16.634Z,3.50
2022-12-12T15:28:47.431Z,3.50
2022-12-12T15:31:16.330Z,3.40
2022-12-12T15:33:43.255Z,3.30
2022-12-12T15:36:21.553Z,3.20
2022-12-12T15:39:02.393Z,3.30
2022-12-12T15:41:29.368Z,3.40
2022-12-12T15:43:56.366Z,3.50
2022-12-12T15:46:23.277Z,3.50
2022-12-12T15:48:50.510Z,3.60
2022-12-12T15:51:24.312Z,3.70
2022-12-12T15:53:53.092Z,3.80
2022-12-12T15:56:19.930Z,3.80
2022-12-12T15:58:54.865Z,3.80
2022-12-12T16:01:27.722Z,3.70
2022-12-12T16:03:57.495Z,3.70
2022-12-12T16:06:32.135Z,3.70
2022-12-12T16:09:11.125Z,3.60
2022-12-12T16:11:45.492Z,3.60
2022-12-12T16:14:38.588Z,3.60
2022-12-12T16:17:06.241Z,3.50
2022-12-12T16:19:33.372Z,3.40
2022-12-12T16:22:05.189Z,3.40
2022-12-12T16:24:32.271Z,3.30
2022-12-12T16:27:00.324Z,3.30
2022-12-12T16:29:27.208Z,3.30
2022-12-12T16:31:56.175Z,3.20
2022-12-12T16:34:23.196Z,3.20
2022-12-12T16:36:50.004Z,3.20
2022-12-12T16:39:17.247Z,3.10
2022-12-12T16:41:44.461Z,3.10
2022-12-12T16:44:14.055Z,3.00
2022-12-12T16:46:40.963Z,3.00
2022-12-12T16:49:14.938Z,2.90
2022-12-12T16:51:42.358Z,2.90
2022-12-12T16:54:17.003Z,2.90
2022-12-12T16:56:44.608Z,2.80
2022-12-12T16:59:11.656Z,2.80
2022-12-12T17:01:39.281Z,2.70
2022-12-12T17:04:07.499Z,2.70
2022-12-12T17:06:34.467Z,2.60
2022-12-12T17:09:01.378Z,2.60
2022-12-12T17:11:28.357Z,2.50
2022-12-12T17:13:55.177Z,2.50
2022-12-12T17:16:27.557Z,2.30
2022-12-12T17:18:55.003Z,2.30
2022-12-12T17:21:22.162Z,2.20
2022-12-12T17:23:49.074Z,2.20
2022-12-12T17:26:16.137Z,2.10
2022-12-12T17:28:42.961Z,2.10
2022-12-12T17:31:10.074Z,2.10
2022-12-12T17:33:45.854Z,2.10
2022-12-12T17:36:17.208Z,2.00
2022-12-12T17:38:44.192Z,1.90
2022-12-12T17:41:11.199Z,1.80
2022-12-12T17:43:38.242Z,1.80
2022-12-12T17:46:06.757Z,1.70
2022-12-12T17:48:35.007Z,1.70
2022-12-12T17:51:06.072Z,1.70
2022-12-12T17:53:38.300Z,1.70
2022-12-12T17:56:11.099Z,1.70
2022-12-12T17:58:38.949Z,1.70
2022-12-12T18:01:09.743Z,1.60
2022-12-12T18:03:37.475Z,1.70
2022-12-12T18:06:04.586Z,1.70
2022-12-12T18:08:31.536Z,1.60
2022-12-12T18:10:58.493Z,1.60
2022-12-12T18:13:26.262Z,1.60
2022-12-12T18:15:56.858Z,1.60
2022-12-12T18:18:24.366Z,1.50
2022-12-12T18:20:51.531Z,1.50
2022-12-12T18:23:18.856Z,1.50
2022-12-12T18:25:46.460Z,1.50
2022-12-12T18:28:13.653Z,1.40
2022-12-12T18:30:40.911Z,1.40
2022-12-12T18:33:08.233Z,1.40
2022-12-12T18:35:35.241Z,1.40
2022-12-12T18:38:02.273Z,1.30
2022-12-12T18:40:29.580Z,1.30
2022-12-12T18:42:56.474Z,1.20
2022-12-12T18:45:24.230Z,1.20
2022-12-12T18:47:51.171Z,1.20
2022-12-12T18:50:18.021Z,1.20
2022-12-12T18:52:44.901Z,1.10
2022-12-12T18:55:11.713Z,1.00
2022-12-12T18:57:38.661Z,0.90
2022-12-12T19:00:07.489Z,0.90
2022-12-12T19:02:38.705Z,0.90
2022-12-12T19:05:05.904Z,0.90
2022-12-12T19:07:32.832Z,0.90
2022-12-12T19:09:59.682Z,1.00
2022-12-12T19:12:26.586Z,0.90
2022-12-12T19:15:15.687Z,1.00
2022-12-12T19:17:40.311Z,0.90
2022-12-12T19:20:07.359Z,0.90
2022-12-12T19:22:49.502Z,0.90
2022-12-12T19:25:17.396Z,0.90
2022-12-12T19:27:44.394Z,0.80
2022-12-12T19:30:12.650Z,0.80
2022-12-12T19:32:40.121Z,0.70
2022-12-12T19:35:07.545Z,0.80
2022-12-12T19:37:35.743Z,0.70
2022-12-12T19:40:02.677Z,0.70
2022-12-12T19:42:29.523Z,0.70
2022-12-12T19:44:56.370Z,0.70
2022-12-12T19:47:23.210Z,0.60
2022-12-12T19:49:50.545Z,0.60
2022-12-12T19:52:17.400Z,0.60
2022-12-12T19:54:44.229Z,0.60
2022-12-12T19:57:11.097Z,0.60
2022-12-12T19:59:37.978Z,0.50
2022-12-12T20:02:05.695Z,0.50
2022-12-12T20:04:32.834Z,0.40
2022-12-12T20:06:59.773Z,0.20
2022-12-12T20:09:28.574Z,0.20
2022-12-12T20:11:56.379Z,0.20
2022-12-12T20:14:24.512Z,0.20
2022-12-12T20:16:51.648Z,0.20
2022-12-12T20:19:19.002Z,0.20
2022-12-12T20:22:03.618Z,0.20
2022-12-12T20:24:32.047Z,0.20
2022-12-12T20:26:59.937Z,0.10
2022-12-12T20:29:27.328Z,0.10
2022-12-12T20:31:54.205Z,-0.10
2022-12-12T20:34:25.272Z,-0.20
2022-12-12T20:36:52.507Z,-0.30
2022-12-12T20:39:22.165Z,-0.30
2022-12-12T20:41:50.153Z,-0.40
2022-12-12T20:44:17.178Z,-0.40
2022-12-12T20:46:48.571Z,-0.40
2022-12-12T20:49:16.896Z,-0.40
2022-12-12T20:51:59.763Z,-0.40
2022-12-12T20:54:28.446Z,-0.50
2022-12-12T20:56:55.988Z,-0.50
2022-12-12T20:59:23.999Z,-0.50
2022-12-12T21:01:51.132Z,-0.50
2022-12-12T21:04:18.117Z,-0.50
2022-12-12T21:06:48.408Z,-0.50
2022-12-12T21:09:22.786Z,-0.50
2022-12-12T21:11:50.670Z,-0.50
2022-12-12T21:14:17.512Z,-0.60
2022-12-12T21:16:44.476Z,-0.50
2022-12-12T21:19:12.432Z,-0.60
2022-12-12T21:21:40.087Z,-0.60
2022-12-12T21:24:07.033Z,-0.60
2022-12-12T21:26:34.118Z,-0.60
2022-12-12T21:29:02.132Z,-0.70
2022-12-12T21:31:30.990Z,-0.70
2022-12-12T21:33:58.655Z,-0.70
2022-12-12T21:36:25.602Z,-0.80
2022-12-12T21:38:55.934Z,-0.80
2022-12-12T21:41:23.320Z,-0.80
2022-12-12T21:43:50.531Z,-0.90
2022-12-12T21:46:18.728Z,-0.90
2022-12-12T21:48:46.131Z,-0.90
2022-12-12T21:51:14.267Z,-0.90
2022-12-12T21:53:41.901Z,-0.90
2022-12-12T21:56:14.402Z,-0.90
2022-12-12T21:58:42.120Z,-1.00
2022-12-12T22:01:18.950Z,-1.00
2022-12-12T22:03:47.778Z,-1.00
2022-12-12T22:06:17.649Z,-1.10
2022-12-12T22:08:45.051Z,-1.10
2022-12-12T22:11:12.065Z,-1.10
2022-12-12T22:13:40.276Z,-1.10
2022-12-12T22:16:10.641Z,-1.20
2022-12-12T22:18:37.543Z,-1.20
2022-12-12T22:21:12.074Z,-1.20
2022-12-12T22:23:39.395Z,-1.30
2022-12-12T22:26:16.741Z,-1.30
2022-12-12T22:28:43.704Z,-1.30
2022-12-12T22:31:10.747Z,-1.30
2022-12-12T22:33:38.290Z,-1.40
2022-12-12T22:36:05.986Z,-1.40
2022-12-12T22:38:37.867Z,-1.40
2022-12-12T22:41:06.079Z,-1.40
2022-12-12T22:43:33.448Z,-1.50
2022-12-12T22:46:04.593Z,-1.50
2022-12-12T22:48:31.821Z,-1.50
2022-12-12T22:50:58.743Z,-1.50
2022-12-12T22:53:25.991Z,-1.60
2022-12-12T22:55:52.807Z,-1.70
2022-12-12T22:58:19.717Z,-1.70
2022-12-12T23:00:46.554Z,-1.70
2022-12-12T23:03:13.447Z,-1.70
2022-12-12T23:05:40.419Z,-1.70
2022-12-12T23:08:07.317Z,-1.70
2022-12-12T23:10:34.846Z,-1.70
2022-12-12T23:13:01.636Z,-1.70
2022-12-12T23:15:28.486Z,-1.70
2022-12-12T23:17:55.325Z,-1.80
2022-12-12T23:20:22.215Z,-1.70
2022-12-12T23:22:49.048Z,-1.80
2022-12-12T23:25:16.304Z,-1.80
2022-12-12T23:27:43.441Z,-1.80
2022-12-12T23:30:10.518Z,-1.80
2022-12-12T23:32:37.395Z,-1.90
2022-12-12T23:35:04.302Z,-1.90
2022-12-12T23:37:31.131Z,-1.90
2022-12-12T23:40:00.824Z,-1.90
2022-12-12T23:42:28.957Z,-2.00
2022-12-12T23:44:55.752Z,-2.00
2022-12-12T23:47:22.593Z,-2.00
2022-12-12T23:49:49.498Z,-2.00
2022-12-12T23:52:16.397Z,-2.10
2022-12-12T23:54:43.271Z,-2.10
2022-12-12T23:57:10.177Z,-2.10
2022-12-12T23:59:37.066Z,-2.10
